Time;durP1;ratioP1;P1;durP2;ratioP2;P2;SDS_P1;SDS_P2;PMS_P1;PMS_P2;Temp;Humidity;BMP_temperature;BMP_pressure;BME280_temperature;BME280_humidity;BME280_pressure;Samples;Min_cycle;Max_cycle;Signal;HPM_P1;HPM_P2
2021/10/18 00:00:05;;;;;;;13.10;7.05;;;;;;;;;;5035525;28;20368;-90
2021/10/18 00:02:30;;;;;;;15.23;7.07;;;;;;;;;;5034391;28;20009;-90
2021/10/18 00:04:55;;;;;;;14.65;7.80;;;;;;;;;;5034281;28;20101;-90
2021/10/18 00:07:22;;;;;;;17.13;7.35;;;;;;;;;;5035323;28;20364;-89
2021/10/18 00:09:47;;;;;;;12.63;6.95;;;;;;;;;;5035282;28;20027;-90
2021/10/18 00:12:12;;;;;;;16.50;7.63;;;;;;;;;;5033483;28;20017;-90
2021/10/18 00:14:38;;;;;;;15.83;7.50;;;;;;;;;;5032945;28;20363;-90
2021/10/18 00:17:03;;;;;;;18.57;8.03;;;;;;;;;;5033528;28;20022;-90
2021/10/18 00:19:28;;;;;;;16.08;8.00;;;;;;;;;;5020481;28;20010;-90
2021/10/18 00:21:53;;;;;;;15.43;7.87;;;;;;;;;;5067014;28;20029;-90
2021/10/18 00:24:19;;;;;;;15.97;8.20;;;;;;;;;;5033737;28;20052;-90
2021/10/18 00:26:44;;;;;;;14.07;7.67;;;;;;;;;;5031958;28;20105;-91
2021/10/18 00:29:09;;;;;;;15.90;7.07;;;;;;;;;;5032567;28;20370;-91
2021/10/18 00:31:34;;;;;;;15.70;7.73;;;;;;;;;;5033667;28;20021;-90
2021/10/18 00:34:00;;;;;;;14.53;7.67;;;;;;;;;;5067322;28;20523;-90
2021/10/18 00:36:25;;;;;;;16.10;7.57;;;;;;;;;;5034224;28;20021;-90
2021/10/18 00:38:50;;;;;;;17.20;8.53;;;;;;;;;;5034708;28;20017;-90
2021/10/18 00:41:17;;;;;;;16.80;8.07;;;;;;;;;;5020132;28;20465;-90
2021/10/18 00:43:45;;;;;;;17.30;9.00;;;;;;;;;;5067208;28;20394;-91
2021/10/18 00:46:11;;;;;;;17.47;8.60;;;;;;;;;;5067215;28;20031;-90
2021/10/18 00:48:36;;;;;;;16.53;8.33;;;;;;;;;;5033057;28;20010;-91
2021/10/18 00:51:02;;;;;;;15.13;7.30;;;;;;;;;;5033856;28;20029;-90
2021/10/18 00:53:27;;;;;;;15.23;7.50;;;;;;;;;;5067035;28;20014;-91
2021/10/18 00:55:54;;;;;;;12.23;6.57;;;;;;;;;;5033966;28;20484;-90
2021/10/18 00:58:19;;;;;;;12.23;6.90;;;;;;;;;;5033496;28;20068;-90
2021/10/18 01:00:45;;;;;;;13.27;6.93;;;;;;;;;;5066650;28;20042;-90
2021/10/18 01:03:10;;;;;;;11.90;7.17;;;;;;;;;;5034090;28;20048;-90
2021/10/18 01:05:36;;;;;;;12.40;6.90;;;;;;;;;;5065955;28;20020;-90
2021/10/18 01:08:02;;;;;;;12.77;7.13;;;;;;;;;;5033283;28;20021;-90
2021/10/18 01:10:27;;;;;;;13.93;8.03;;;;;;;;;;5033027;28;20028;-89
2021/10/18 01:12:52;;;;;;;16.70;8.10;;;;;;;;;;5033548;28;20025;-90
2021/10/18 01:15:17;;;;;;;19.40;8.80;;;;;;;;;;5066919;28;20021;-90
2021/10/18 01:17:43;;;;;;;17.77;8.03;;;;;;;;;;5033009;28;20025;-90
2021/10/18 01:20:08;;;;;;;17.10;8.43;;;;;;;;;;5032945;28;20022;-90
2021/10/18 01:22:34;;;;;;;16.80;8.13;;;;;;;;;;5034098;28;20044;-90
2021/10/18 01:24:59;;;;;;;13.93;7.47;;;;;;;;;;5030163;28;20022;-90
2021/10/18 01:27:24;;;;;;;16.00;7.10;;;;;;;;;;5032662;28;20034;-90
2021/10/18 01:29:49;;;;;;;15.07;7.63;;;;;;;;;;5066522;28;20025;-91
2021/10/18 01:32:14;;;;;;;15.57;7.93;;;;;;;;;;5065788;28;20018;-90
2021/10/18 01:34:40;;;;;;;15.37;8.20;;;;;;;;;;5021362;28;20493;-90
2021/10/18 01:37:05;;;;;;;15.33;7.73;;;;;;;;;;5032750;28;20492;-90
2021/10/18 01:39:32;;;;;;;14.87;8.03;;;;;;;;;;5032887;28;20018;-90
2021/10/18 01:41:57;;;;;;;17.30;8.27;;;;;;;;;;5032387;28;20067;-90
2021/10/18 01:44:22;;;;;;;18.03;8.17;;;;;;;;;;5032908;28;20072;-91
2021/10/18 01:46:48;;;;;;;16.20;8.07;;;;;;;;;;5033296;28;20017;-90
2021/10/18 01:49:13;;;;;;;14.93;8.07;;;;;;;;;;5066552;28;20025;-90
2021/10/18 01:51:38;;;;;;;19.37;8.27;;;;;;;;;;5032914;28;20025;-90
2021/10/18 01:54:04;;;;;;;13.93;7.33;;;;;;;;;;5066595;28;20052;-90
2021/10/18 01:56:31;;;;;;;10.90;6.23;;;;;;;;;;5066074;28;20112;-90
2021/10/18 01:58:56;;;;;;;15.20;6.73;;;;;;;;;;5033667;28;20017;-90
2021/10/18 02:01:22;;;;;;;12.80;6.33;;;;;;;;;;5032706;28;20022;-90
2021/10/18 02:03:47;;;;;;;14.43;7.10;;;;;;;;;;5033471;28;20018;-91
2021/10/18 02:06:12;;;;;;;13.87;7.37;;;;;;;;;;5029578;28;20022;-90
2021/10/18 02:08:37;;;;;;;13.60;7.00;;;;;;;;;;5029350;28;20025;-89
2021/10/18 02:11:03;;;;;;;11.93;7.10;;;;;;;;;;5023784;28;20022;-90
2021/10/18 02:13:28;;;;;;;14.80;7.40;;;;;;;;;;5049095;28;20021;-90
2021/10/18 02:15:54;;;;;;;14.67;7.37;;;;;;;;;;5068109;28;20457;-90
2021/10/18 02:18:20;;;;;;;11.73;6.63;;;;;;;;;;5068204;28;20080;-90
2021/10/18 02:20:45;;;;;;;15.83;7.00;;;;;;;;;;5023578;28;20385;-90
2021/10/18 02:23:10;;;;;;;15.87;7.07;;;;;;;;;;5036654;28;20025;-91
2021/10/18 02:25:36;;;;;;;15.70;7.37;;;;;;;;;;5069859;28;20127;-90
2021/10/18 02:28:01;;;;;;;15.97;7.70;;;;;;;;;;5070268;28;20079;-90
2021/10/18 02:30:26;;;;;;;19.60;8.53;;;;;;;;;;5036272;28;20388;-89
2021/10/18 02:32:51;;;;;;;16.67;8.07;;;;;;;;;;5037291;28;20449;-90
2021/10/18 02:35:16;;;;;;;19.43;8.57;;;;;;;;;;5069776;28;20030;-90
2021/10/18 02:37:42;;;;;;;14.73;7.63;;;;;;;;;;5035620;28;20025;-90
2021/10/18 02:40:08;;;;;;;16.77;7.93;;;;;;;;;;5069480;28;20021;-90
2021/10/18 02:42:33;;;;;;;17.77;8.20;;;;;;;;;;5036274;28;20017;-90
2021/10/18 02:44:58;;;;;;;17.00;8.30;;;;;;;;;;5036185;28;20017;-91
2021/10/18 02:47:23;;;;;;;19.10;8.43;;;;;;;;;;5033363;28;20029;-90
2021/10/18 02:49:49;;;;;;;19.70;9.13;;;;;;;;;;5031397;28;20022;-90
2021/10/18 02:52:14;;;;;;;17.70;8.47;;;;;;;;;;5026605;28;20017;-90
2021/10/18 02:54:39;;;;;;;19.53;8.23;;;;;;;;;;5070034;28;20392;-90
2021/10/18 02:57:04;;;;;;;14.77;7.73;;;;;;;;;;5070364;28;20017;-91
2021/10/18 02:59:29;;;;;;;15.70;7.80;;;;;;;;;;5036309;28;20072;-90
2021/10/18 03:01:55;;;;;;;16.37;8.13;;;;;;;;;;5069617;28;20550;-90
2021/10/18 03:04:20;;;;;;;15.23;7.83;;;;;;;;;;5032311;28;20544;-89
2021/10/18 03:06:45;;;;;;;17.63;8.17;;;;;;;;;;5035377;28;20021;-90
2021/10/18 03:09:10;;;;;;;14.33;8.03;;;;;;;;;;5035349;28;20026;-90
2021/10/18 03:11:36;;;;;;;14.67;7.53;;;;;;;;;;5051934;28;20021;-90
2021/10/18 03:14:01;;;;;;;12.93;6.83;;;;;;;;;;5035052;28;20026;-90
2021/10/18 03:16:26;;;;;;;18.40;8.23;;;;;;;;;;5068215;28;20028;-90
2021/10/18 03:18:52;;;;;;;15.43;7.53;;;;;;;;;;5067926;28;20018;-90
2021/10/18 03:21:17;;;;;;;17.50;8.57;;;;;;;;;;5031258;28;20025;-90
2021/10/18 03:23:42;;;;;;;18.13;8.50;;;;;;;;;;5034661;28;20040;-90
2021/10/18 03:26:08;;;;;;;20.57;9.03;;;;;;;;;;5035274;28;20041;-90
2021/10/18 03:28:33;;;;;;;16.17;7.97;;;;;;;;;;5034999;28;20083;-90
2021/10/18 03:30:58;;;;;;;19.03;8.53;;;;;;;;;;5035245;28;20132;-89
2021/10/18 03:33:23;;;;;;;18.47;7.97;;;;;;;;;;5034614;28;20033;-90
2021/10/18 03:35:51;;;;;;;16.87;7.87;;;;;;;;;;5068930;28;20473;-90
2021/10/18 03:38:17;;;;;;;17.27;8.67;;;;;;;;;;5036078;28;20056;-90
2021/10/18 03:40:42;;;;;;;20.00;9.63;;;;;;;;;;5069470;28;20018;-90
2021/10/18 03:43:07;;;;;;;20.10;8.73;;;;;;;;;;5037113;28;20383;-90
2021/10/18 03:45:32;;;;;;;18.20;9.23;;;;;;;;;;5036900;28;20018;-90
2021/10/18 03:47:59;;;;;;;19.23;9.10;;;;;;;;;;5069056;28;20030;-90
2021/10/18 03:50:24;;;;;;;20.17;8.23;;;;;;;;;;5036266;28;20120;-90
2021/10/18 03:52:49;;;;;;;17.97;8.30;;;;;;;;;;5069777;28;20060;-90
2021/10/18 03:55:15;;;;;;;18.57;8.87;;;;;;;;;;5036460;28;20104;-90
2021/10/18 03:57:40;;;;;;;24.20;9.63;;;;;;;;;;5036536;28;20072;-90
2021/10/18 04:00:06;;;;;;;19.57;8.47;;;;;;;;;;5037645;28;20024;-90
2021/10/18 04:02:32;;;;;;;16.77;7.90;;;;;;;;;;5032703;28;20018;-90
2021/10/18 04:04:57;;;;;;;17.70;8.77;;;;;;;;;;5065525;28;20509;-89
2021/10/18 04:07:22;;;;;;;25.87;10.17;;;;;;;;;;5035785;28;20026;-90
2021/10/18 04:09:48;;;;;;;20.93;10.27;;;;;;;;;;5036009;28;20017;-89
2021/10/18 04:12:13;;;;;;;18.73;9.00;;;;;;;;;;5036878;28;20431;-90
2021/10/18 04:14:38;;;;;;;25.40;11.10;;;;;;;;;;5036932;28;20018;-89
2021/10/18 04:17:04;;;;;;;23.33;10.83;;;;;;;;;;5036819;28;20017;-90
2021/10/18 04:19:29;;;;;;;20.97;9.53;;;;;;;;;;5036318;28;20461;-90
2021/10/18 04:21:54;;;;;;;25.60;10.53;;;;;;;;;;5036211;28;20032;-90
2021/10/18 04:24:20;;;;;;;23.30;11.27;;;;;;;;;;5035257;28;20021;-90
2021/10/18 04:26:45;;;;;;;23.20;11.13;;;;;;;;;;5034858;28;20032;-90
2021/10/18 04:29:10;;;;;;;29.10;11.40;;;;;;;;;;5034779;28;20025;-90
2021/10/18 04:31:35;;;;;;;25.63;10.97;;;;;;;;;;5034996;28;20017;-90
2021/10/18 04:34:01;;;;;;;30.90;11.03;;;;;;;;;;5035952;28;20017;-91
2021/10/18 04:36:26;;;;;;;28.33;12.03;;;;;;;;;;5034990;28;20041;-90
2021/10/18 04:38:52;;;;;;;29.27;10.70;;;;;;;;;;5034812;28;20029;-90
2021/10/18 04:41:17;;;;;;;21.70;9.60;;;;;;;;;;5035946;28;20024;-90
2021/10/18 04:43:42;;;;;;;23.63;10.37;;;;;;;;;;5034721;28;20014;-89
2021/10/18 04:46:08;;;;;;;28.20;10.10;;;;;;;;;;5034612;28;20064;-90
2021/10/18 04:48:33;;;;;;;24.93;10.83;;;;;;;;;;5031342;28;20034;-90
2021/10/18 04:50:58;;;;;;;21.93;11.07;;;;;;;;;;5041750;28;20029;-90
2021/10/18 04:53:23;;;;;;;21.83;10.50;;;;;;;;;;5050997;28;20397;-90
2021/10/18 04:55:49;;;;;;;21.43;9.90;;;;;;;;;;5067173;28;20739;-90
2021/10/18 04:58:14;;;;;;;24.10;11.33;;;;;;;;;;5067406;28;20521;-90
2021/10/18 05:00:42;;;;;;;28.00;11.33;;;;;;;;;;5034575;28;20021;-90
2021/10/18 05:03:08;;;;;;;25.33;10.70;;;;;;;;;;5035388;28;20013;-90
2021/10/18 05:05:34;;;;;;;22.30;9.83;;;;;;;;;;5034351;28;20091;-90
2021/10/18 05:08:03;;;;;;;22.10;10.17;;;;;;;;;;5067567;28;20021;-91
2021/10/18 05:10:28;;;;;;;22.37;9.83;;;;;;;;;;5053378;28;20423;-91
2021/10/18 05:12:53;;;;;;;20.80;10.07;;;;;;;;;;5067505;28;20029;-89
2021/10/18 05:15:19;;;;;;;24.03;9.33;;;;;;;;;;5033940;28;20071;-90
2021/10/18 05:17:44;;;;;;;23.67;10.10;;;;;;;;;;5033734;28;20017;-89
2021/10/18 05:20:09;;;;;;;27.23;11.17;;;;;;;;;;5033542;28;20057;-89
2021/10/18 05:22:34;;;;;;;26.80;11.27;;;;;;;;;;5034762;28;20425;-90
2021/10/18 05:25:00;;;;;;;26.43;10.50;;;;;;;;;;5033563;28;20766;-90
2021/10/18 05:27:25;;;;;;;23.47;10.50;;;;;;;;;;5050633;28;20465;-90
2021/10/18 05:29:50;;;;;;;28.47;10.73;;;;;;;;;;5034030;28;20052;-90
2021/10/18 05:32:15;;;;;;;25.13;10.93;;;;;;;;;;5030028;28;20014;-90
2021/10/18 05:34:40;;;;;;;27.27;11.13;;;;;;;;;;5024617;28;20029;-90
2021/10/18 05:37:06;;;;;;;26.03;11.33;;;;;;;;;;5033695;28;20014;-91
2021/10/18 05:39:31;;;;;;;27.73;12.30;;;;;;;;;;5033607;28;20076;-90
2021/10/18 05:41:56;;;;;;;28.03;11.87;;;;;;;;;;5033686;28;20151;-90
2021/10/18 05:44:21;;;;;;;27.93;11.30;;;;;;;;;;5033506;28;20175;-90
2021/10/18 05:46:47;;;;;;;23.87;10.47;;;;;;;;;;5035341;28;20476;-90
2021/10/18 05:49:12;;;;;;;21.50;10.03;;;;;;;;;;5035118;28;20436;-90
2021/10/18 05:51:37;;;;;;;22.97;10.20;;;;;;;;;;5057989;28;20018;-90
2021/10/18 05:54:02;;;;;;;19.33;9.60;;;;;;;;;;5037959;28;20079;-90
2021/10/18 05:56:28;;;;;;;30.13;11.30;;;;;;;;;;5038053;28;20524;-91
2021/10/18 05:58:53;;;;;;;24.33;11.27;;;;;;;;;;5037956;28;20366;-90
2021/10/18 06:01:18;;;;;;;25.23;10.87;;;;;;;;;;5037783;28;20088;-90
2021/10/18 06:03:43;;;;;;;33.97;11.40;;;;;;;;;;5037532;28;20021;-91
2021/10/18 06:06:12;;;;;;;29.20;11.77;;;;;;;;;;5070003;28;20109;-90
2021/10/18 06:08:37;;;;;;;28.40;11.53;;;;;;;;;;5037223;28;20074;-91
2021/10/18 06:11:05;;;;;;;28.90;10.80;;;;;;;;;;5038616;28;20092;-92
2021/10/18 06:13:31;;;;;;;24.40;11.23;;;;;;;;;;5034497;28;20454;-91
2021/10/18 06:15:56;;;;;;;29.50;10.60;;;;;;;;;;5059888;28;20032;-91
2021/10/18 06:18:21;;;;;;;25.17;11.27;;;;;;;;;;5023156;28;20022;-92
2021/10/18 06:20:48;;;;;;;23.83;10.33;;;;;;;;;;5037190;28;20067;-91
2021/10/18 06:23:14;;;;;;;25.67;10.57;;;;;;;;;;5037254;28;20024;-92
2021/10/18 06:25:40;;;;;;;21.07;9.63;;;;;;;;;;5037038;28;20013;-92
2021/10/18 06:28:05;;;;;;;27.13;9.73;;;;;;;;;;5070708;28;20535;-91
2021/10/18 06:30:31;;;;;;;21.87;10.10;;;;;;;;;;5038080;28;20024;-91
2021/10/18 06:32:56;;;;;;;19.27;9.20;;;;;;;;;;5036909;28;20079;-92
2021/10/18 06:35:22;;;;;;;23.10;9.37;;;;;;;;;;5041665;28;20406;-92
2021/10/18 06:37:47;;;;;;;25.60;10.97;;;;;;;;;;5037075;28;20523;-92
2021/10/18 06:40:13;;;;;;;23.70;10.50;;;;;;;;;;5037241;28;20044;-92
2021/10/18 06:42:38;;;;;;;28.57;12.13;;;;;;;;;;5036951;28;20018;-93
2021/10/18 06:45:04;;;;;;;26.87;10.80;;;;;;;;;;5036791;28;20499;-91
2021/10/18 06:47:29;;;;;;;29.17;11.87;;;;;;;;;;5037335;28;20397;-91
2021/10/18 06:49:56;;;;;;;21.00;9.50;;;;;;;;;;5065188;28;20021;-92
2021/10/18 06:52:22;;;;;;;24.83;10.53;;;;;;;;;;5028404;28;20017;-91
2021/10/18 06:54:48;;;;;;;31.30;10.90;;;;;;;;;;5037290;28;20435;-92
2021/10/18 06:57:13;;;;;;;28.10;11.80;;;;;;;;;;5036581;28;20024;-92
2021/10/18 06:59:38;;;;;;;27.90;11.97;;;;;;;;;;5069931;28;20412;-92
2021/10/18 07:02:03;;;;;;;28.00;11.23;;;;;;;;;;5036450;28;20018;-91
2021/10/18 07:04:33;;;;;;;25.17;10.70;;;;;;;;;;5036729;28;20080;-92
2021/10/18 07:06:59;;;;;;;26.27;11.10;;;;;;;;;;5036657;28;20026;-91
2021/10/18 07:09:24;;;;;;;27.93;11.47;;;;;;;;;;5037317;28;20074;-91
2021/10/18 07:11:50;;;;;;;27.70;12.10;;;;;;;;;;5036268;28;20159;-91
2021/10/18 07:14:15;;;;;;;29.30;11.63;;;;;;;;;;5036098;28;20030;-91
2021/10/18 07:16:40;;;;;;;27.37;11.13;;;;;;;;;;5036097;28;20027;-91
2021/10/18 07:19:05;;;;;;;26.33;11.73;;;;;;;;;;5036324;28;20025;-91
2021/10/18 07:21:30;;;;;;;33.20;12.07;;;;;;;;;;5036383;28;20022;-91
2021/10/18 07:23:58;;;;;;;27.80;12.00;;;;;;;;;;5031376;28;20089;-91
2021/10/18 07:26:23;;;;;;;33.13;13.03;;;;;;;;;;5027649;28;20018;-91
2021/10/18 07:28:50;;;;;;;29.10;12.10;;;;;;;;;;5037677;28;20128;-92
2021/10/18 07:31:15;;;;;;;32.13;13.23;;;;;;;;;;5036314;28;20021;-91
2021/10/18 07:33:40;;;;;;;31.67;11.60;;;;;;;;;;5036526;28;20033;-91
2021/10/18 07:36:11;;;;;;;27.97;12.27;;;;;;;;;;5023533;28;20013;-91
2021/10/18 07:38:37;;;;;;;29.17;12.17;;;;;;;;;;5036324;28;20112;-91
2021/10/18 07:41:03;;;;;;;30.92;12.80;;;;;;;;;;5036286;28;20022;-92
2021/10/18 07:43:28;;;;;;;32.63;13.13;;;;;;;;;;5037387;28;20076;-91
2021/10/18 07:45:53;;;;;;;30.73;13.35;;;;;;;;;;5035732;28;20018;-92
2021/10/18 07:48:18;;;;;;;31.85;12.77;;;;;;;;;;5035849;28;20030;-91
2021/10/18 07:50:44;;;;;;;29.00;12.15;;;;;;;;;;5036207;28;20405;-91
2021/10/18 07:53:09;;;;;;;33.40;13.07;;;;;;;;;;5032297;28;20462;-91
2021/10/18 07:55:36;;;;;;;33.30;13.48;;;;;;;;;;5025861;28;20021;-92
2021/10/18 07:58:02;;;;;;;25.98;11.65;;;;;;;;;;5035210;28;20489;-92
2021/10/18 08:00:27;;;;;;;25.60;11.82;;;;;;;;;;5035395;28;20049;-91
2021/10/18 08:02:52;;;;;;;34.92;12.43;;;;;;;;;;5035241;28;20025;-91
2021/10/18 08:05:17;;;;;;;27.92;12.20;;;;;;;;;;5035573;28;20045;-91
2021/10/18 08:07:48;;;;;;;33.97;13.18;;;;;;;;;;5035488;28;20021;-91
2021/10/18 08:10:17;;;;;;;27.83;11.52;;;;;;;;;;5035285;28;20080;-91
2021/10/18 08:12:42;;;;;;;31.25;12.13;;;;;;;;;;5035025;28;20032;-92
2021/10/18 08:15:07;;;;;;;26.58;11.57;;;;;;;;;;5034513;28;20034;-92
2021/10/18 08:17:32;;;;;;;26.15;11.35;;;;;;;;;;5035122;28;20032;-92
2021/10/18 08:19:58;;;;;;;30.55;12.05;;;;;;;;;;5034592;28;20033;-91
2021/10/18 08:22:23;;;;;;;28.15;11.98;;;;;;;;;;5035016;28;20024;-91
2021/10/18 08:24:48;;;;;;;24.23;10.05;;;;;;;;;;5034661;28;20071;-91
2021/10/18 08:27:13;;;;;;;27.30;11.77;;;;;;;;;;5034493;28;20021;-91
2021/10/18 08:29:39;;;;;;;27.20;10.70;;;;;;;;;;5036184;28;20370;-92
2021/10/18 08:32:04;;;;;;;30.95;11.82;;;;;;;;;;5067823;28;20033;-92
2021/10/18 08:34:29;;;;;;;29.70;12.63;;;;;;;;;;5034626;28;20027;-91
2021/10/18 08:36:55;;;;;;;30.13;11.23;;;;;;;;;;5034674;28;20212;-91
2021/10/18 08:42:07;;;;;;;23.27;10.52;;;;;;;;;;5035565;28;20029;-92
2021/10/18 08:44:34;;;;;;;26.92;12.38;;;;;;;;;;5034060;28;20083;-91
2021/10/18 08:47:01;;;;;;;26.75;11.32;;;;;;;;;;5034159;28;20028;-92
2021/10/18 08:49:27;;;;;;;23.05;9.05;;;;;;;;;;5033582;28;20024;-92
2021/10/18 08:51:52;;;;;;;17.42;7.30;;;;;;;;;;5067619;28;20373;-91
2021/10/18 08:54:17;;;;;;;19.48;7.75;;;;;;;;;;5067044;28;20021;-92
2021/10/18 08:56:43;;;;;;;17.63;7.85;;;;;;;;;;5066734;28;20104;-92
2021/10/18 08:59:09;;;;;;;23.70;11.13;;;;;;;;;;5066986;28;20030;-91
2021/10/18 09:01:41;;;;;;;22.58;10.35;;;;;;;;;;5034564;28;20048;-91
2021/10/18 09:04:06;;;;;;;;;;;;;;;;;;5035356;28;20018;-91
2021/10/18 09:06:31;;;;;;;26.55;11.25;;;;;;;;;;5066790;28;19936;-91
2021/10/18 09:09:01;;;;;;;23.55;10.57;;;;;;;;;;5034603;28;20269;-91
2021/10/18 09:11:27;;;;;;;22.40;8.98;;;;;;;;;;5024358;28;20030;-91
2021/10/18 09:13:52;;;;;;;16.30;6.82;;;;;;;;;;5034452;28;20020;-91
2021/10/18 09:16:34;;;;;;;28.58;10.45;;;;;;;;;;5065809;28;20030;-91
2021/10/18 09:19:02;;;;;;;22.00;10.02;;;;;;;;;;5020039;28;20135;-91
2021/10/18 09:21:29;;;;;;;15.43;6.35;;;;;;;;;;5033460;28;20065;-91
2021/10/18 09:23:54;;;;;;;20.10;8.80;;;;;;;;;;5033311;28;20029;-91
2021/10/18 09:26:23;;;;;;;24.17;9.77;;;;;;;;;;5066238;28;20021;-91
2021/10/18 09:28:51;;;;;;;20.25;8.43;;;;;;;;;;5033130;28;20017;-91
2021/10/18 09:31:17;;;;;;;18.30;7.40;;;;;;;;;;5066483;28;20358;-92
2021/10/18 09:33:47;;;;;;;20.98;10.02;;;;;;;;;;5034002;28;20113;-91
2021/10/18 09:36:19;;;;;;;21.20;10.45;;;;;;;;;;5020450;28;20449;-91
2021/10/18 09:38:44;;;;;;;16.38;7.57;;;;;;;;;;5032873;28;20029;-91
2021/10/18 09:41:09;;;;;;;14.73;7.18;;;;;;;;;;5032638;28;20044;-91
2021/10/18 09:43:38;;;;;;;22.90;8.55;;;;;;;;;;5031822;28;20028;-91
2021/10/18 09:46:16;;;;;;;16.35;6.35;;;;;;;;;;5029907;28;20024;-91
2021/10/18 10:53:03;;;;;;;12.73;5.75;;;;;;;;;;5036890;28;20021;-91
2021/10/18 10:55:31;;;;;;;13.57;7.05;;;;;;;;;;5036676;28;20033;-91
2021/10/18 10:57:58;;;;;;;13.18;4.65;;;;;;;;;;5035055;28;20397;-91
2021/10/18 11:00:40;;;;;;;11.18;5.68;;;;;;;;;;5035416;28;20480;-91
2021/10/18 11:03:20;;;;;;;13.90;5.95;;;;;;;;;;5068411;28;20048;-91
2021/10/18 11:06:02;;;;;;;11.20;4.28;;;;;;;;;;5068633;28;20044;-91
2021/10/18 11:08:41;;;;;;;8.15;4.20;;;;;;;;;;5054280;28;20018;-91
2021/10/18 11:11:07;;;;;;;10.15;5.13;;;;;;;;;;5036165;28;20112;-91
2021/10/18 11:13:39;;;;;;;10.60;4.72;;;;;;;;;;5036050;28;20041;-91
2021/10/18 11:16:04;;;;;;;10.23;5.10;;;;;;;;;;5035278;28;20029;-91
2021/10/18 11:18:29;;;;;;;10.80;4.53;;;;;;;;;;5036049;28;20663;-91
2021/10/18 11:20:55;;;;;;;7.63;4.25;;;;;;;;;;5035930;28;20026;-91
2021/10/18 11:23:20;;;;;;;10.02;4.28;;;;;;;;;;5041983;28;20400;-91
2021/10/18 11:25:45;;;;;;;5.45;2.70;;;;;;;;;;5068181;28;20491;-91
2021/10/18 11:28:11;;;;;;;5.45;2.65;;;;;;;;;;5034914;28;20083;-91
2021/10/18 11:30:36;;;;;;;7.38;3.40;;;;;;;;;;5035613;28;20032;-91
2021/10/18 11:33:06;;;;;;;4.75;1.77;;;;;;;;;;5034986;28;20018;-91
2021/10/18 11:35:33;;;;;;;4.97;2.08;;;;;;;;;;5068124;28;20018;-91
2021/10/18 11:38:00;;;;;;;6.70;3.35;;;;;;;;;;5035695;28;20025;-91
2021/10/18 11:40:27;;;;;;;8.75;2.85;;;;;;;;;;5035910;28;20025;-91
2021/10/18 11:43:00;;;;;;;8.30;3.45;;;;;;;;;;5035011;28;20022;-91
2021/10/18 11:45:27;;;;;;;7.65;1.80;;;;;;;;;;5031492;28;20389;-92
2021/10/18 11:47:52;;;;;;;10.15;3.97;;;;;;;;;;5030151;28;20385;-91
2021/10/18 11:50:24;;;;;;;8.50;2.80;;;;;;;;;;5061418;28;20036;-91
2021/10/18 11:52:55;;;;;;;7.70;3.30;;;;;;;;;;5034516;28;20056;-91
2021/10/18 11:55:21;;;;;;;7.95;3.08;;;;;;;;;;5067822;28;20025;-91
2021/10/18 11:57:47;;;;;;;6.15;2.97;;;;;;;;;;5035530;28;20021;-91
2021/10/18 12:00:13;;;;;;;8.00;3.58;;;;;;;;;;5030926;28;20029;-91
2021/10/18 12:02:41;;;;;;;3.97;2.13;;;;;;;;;;5026486;28;20025;-90
2021/10/18 12:05:06;;;;;;;9.52;2.20;;;;;;;;;;5067579;28;20460;-93
2021/10/18 12:07:43;;;;;;;3.67;1.77;;;;;;;;;;5034025;28;20017;-91
2021/10/18 12:10:13;;;;;;;10.00;1.83;;;;;;;;;;5035229;28;20010;-91
2021/10/18 12:12:38;;;;;;;7.15;2.53;;;;;;;;;;5035465;28;20030;-91
2021/10/18 12:15:04;;;;;;;3.80;1.70;;;;;;;;;;5034966;28;20021;-91
2021/10/18 12:17:30;;;;;;;10.75;3.13;;;;;;;;;;5034180;28;20044;-91
2021/10/18 12:19:55;;;;;;;6.32;2.72;;;;;;;;;;5033793;28;20473;-91
2021/10/18 12:22:21;;;;;;;3.63;2.00;;;;;;;;;;5033902;28;20072;-91
2021/10/18 12:24:58;;;;;;;7.82;3.90;;;;;;;;;;5067438;28;20064;-91
2021/10/18 12:27:28;;;;;;;5.82;2.70;;;;;;;;;;5034873;28;20017;-91
2021/10/18 12:29:53;;;;;;;7.75;3.65;;;;;;;;;;5033848;28;20009;-91
2021/10/18 12:32:18;;;;;;;12.23;2.60;;;;;;;;;;5033535;28;20354;-91
2021/10/18 12:34:44;;;;;;;10.68;4.05;;;;;;;;;;5034794;28;20013;-91
2021/10/18 12:37:10;;;;;;;5.15;2.28;;;;;;;;;;5066633;28;20078;-91
2021/10/18 12:39:42;;;;;;;6.80;3.47;;;;;;;;;;5034710;28;20026;-91
2021/10/18 12:42:08;;;;;;;7.97;3.33;;;;;;;;;;5057969;28;20026;-91
2021/10/18 12:44:35;;;;;;;3.95;2.17;;;;;;;;;;5031364;28;20025;-91
2021/10/18 12:47:01;;;;;;;7.35;3.53;;;;;;;;;;5034703;28;20025;-91
2021/10/18 12:49:31;;;;;;;6.50;2.05;;;;;;;;;;5031202;28;20025;-91
2021/10/18 12:51:57;;;;;;;3.65;1.88;;;;;;;;;;5034309;28;20480;-92
2021/10/18 12:54:37;;;;;;;6.95;2.78;;;;;;;;;;5034519;28;20014;-91
2021/10/18 12:57:05;;;;;;;4.70;2.90;;;;;;;;;;5034231;28;20029;-91
2021/10/18 12:59:31;;;;;;;7.75;2.70;;;;;;;;;;5046258;28;20022;-91
2021/10/18 13:02:15;;;;;;;6.22;2.65;;;;;;;;;;5035742;28;20072;-91
2021/10/18 13:04:41;;;;;;;8.82;3.75;;;;;;;;;;5033859;28;20016;-91
2021/10/18 13:07:06;;;;;;;10.23;2.40;;;;;;;;;;5030124;28;20026;-91
2021/10/18 13:09:31;;;;;;;6.03;2.70;;;;;;;;;;5033005;28;20053;-91
2021/10/18 13:11:56;;;;;;;7.03;3.67;;;;;;;;;;5032758;28;20105;-91
2021/10/18 13:14:21;;;;;;;11.32;4.35;;;;;;;;;;5032956;28;20487;-91
2021/10/18 13:16:46;;;;;;;5.70;2.60;;;;;;;;;;5032701;28;20071;-91
2021/10/18 13:19:12;;;;;;;4.68;2.28;;;;;;;;;;5054174;28;20025;-91
2021/10/18 13:21:37;;;;;;;6.43;3.17;;;;;;;;;;5020140;28;20049;-91
2021/10/18 13:24:03;;;;;;;5.63;2.30;;;;;;;;;;5063439;28;20017;-91
2021/10/18 13:26:28;;;;;;;8.10;2.83;;;;;;;;;;5032860;28;20030;-91
2021/10/18 13:28:54;;;;;;;3.67;1.50;;;;;;;;;;5052001;28;20022;-91
2021/10/18 13:31:19;;;;;;;12.13;3.83;;;;;;;;;;5032626;28;20029;-92
2021/10/18 13:33:44;;;;;;;6.93;3.30;;;;;;;;;;5034203;28;20449;-91
2021/10/18 13:36:11;;;;;;;7.53;3.05;;;;;;;;;;5032447;28;20025;-91
2021/10/18 13:38:36;;;;;;;10.15;2.97;;;;;;;;;;5033639;28;20018;-91
2021/10/18 13:41:02;;;;;;;6.20;2.65;;;;;;;;;;5033212;28;20025;-91
2021/10/18 13:43:27;;;;;;;9.65;3.83;;;;;;;;;;5028914;28;20026;-90
2021/10/18 13:45:52;;;;;;;6.03;3.55;;;;;;;;;;5032641;28;20075;-91
2021/10/18 13:48:19;;;;;;;6.63;3.70;;;;;;;;;;5032732;28;20028;-91
2021/10/18 13:50:44;;;;;;;8.93;3.85;;;;;;;;;;5021946;28;20028;-91
2021/10/18 13:53:10;;;;;;;10.05;3.78;;;;;;;;;;5031387;28;20477;-91
2021/10/18 13:55:35;;;;;;;9.68;3.65;;;;;;;;;;5032624;28;20082;-91
2021/10/18 13:58:00;;;;;;;3.90;1.40;;;;;;;;;;5032175;28;20033;-92
2021/10/18 14:00:26;;;;;;;7.13;3.72;;;;;;;;;;5032518;28;20392;-91
2021/10/18 14:02:53;;;;;;;7.90;3.72;;;;;;;;;;5032243;28;20028;-91
2021/10/18 14:05:18;;;;;;;3.85;1.70;;;;;;;;;;5023047;28;20100;-91
2021/10/18 14:07:44;;;;;;;6.80;2.95;;;;;;;;;;5032532;28;20107;-91
2021/10/18 14:10:10;;;;;;;6.57;3.40;;;;;;;;;;5061793;28;20109;-91
2021/10/18 14:12:36;;;;;;;9.00;3.58;;;;;;;;;;5025260;28;20021;-92
2021/10/18 14:15:01;;;;;;;10.55;3.17;;;;;;;;;;5069263;28;20059;-91
2021/10/18 14:17:27;;;;;;;5.53;2.85;;;;;;;;;;5036210;28;20112;-91
2021/10/18 14:19:52;;;;;;;8.23;3.65;;;;;;;;;;5037045;28;20083;-91
2021/10/18 14:22:17;;;;;;;9.20;3.47;;;;;;;;;;5036164;28;20067;-91
2021/10/18 14:24:42;;;;;;;8.60;3.20;;;;;;;;;;5035727;28;20030;-92
2021/10/18 14:27:08;;;;;;;7.50;3.30;;;;;;;;;;5037292;28;20021;-92
2021/10/18 14:29:33;;;;;;;10.85;3.28;;;;;;;;;;5069386;28;20063;-91
2021/10/18 14:31:58;;;;;;;6.00;2.85;;;;;;;;;;5037101;28;20022;-92
2021/10/18 14:34:24;;;;;;;7.68;3.15;;;;;;;;;;5066081;28;20500;-91
2021/10/18 14:36:49;;;;;;;5.72;2.67;;;;;;;;;;5025151;28;20070;-91
2021/10/18 14:39:16;;;;;;;5.28;2.55;;;;;;;;;;5052419;28;20377;-91
2021/10/18 14:41:41;;;;;;;5.38;2.90;;;;;;;;;;5036005;28;20024;-91
2021/10/18 14:44:07;;;;;;;7.78;3.03;;;;;;;;;;5036074;28;20025;-91
2021/10/18 14:46:32;;;;;;;6.72;2.95;;;;;;;;;;5035541;28;20461;-91
2021/10/18 14:48:58;;;;;;;6.30;3.47;;;;;;;;;;5035558;28;20019;-91
2021/10/18 14:51:24;;;;;;;8.98;3.25;;;;;;;;;;5035619;28;20535;-92
2021/10/18 14:53:53;;;;;;;8.15;3.45;;;;;;;;;;5035652;28;20018;-91
2021/10/18 14:56:19;;;;;;;3.83;2.78;;;;;;;;;;5036223;28;20120;-92
2021/10/18 14:58:44;;;;;;;7.97;3.10;;;;;;;;;;5029033;28;20100;-91
2021/10/18 15:01:10;;;;;;;9.80;3.40;;;;;;;;;;5030020;28;20024;-91
2021/10/18 15:03:35;;;;;;;8.43;3.33;;;;;;;;;;5036471;28;20017;-91
2021/10/18 15:06:01;;;;;;;7.30;3.40;;;;;;;;;;5036384;28;20100;-91
2021/10/18 15:08:26;;;;;;;8.27;3.20;;;;;;;;;;5035154;28;20116;-91
2021/10/18 15:10:51;;;;;;;8.60;3.08;;;;;;;;;;5068580;28;20496;-91
2021/10/18 15:13:17;;;;;;;6.13;3.30;;;;;;;;;;5035984;28;20021;-91
2021/10/18 15:15:42;;;;;;;5.68;3.03;;;;;;;;;;5034964;28;20075;-91
2021/10/18 15:18:07;;;;;;;7.35;3.40;;;;;;;;;;5036288;28;20099;-91
2021/10/18 15:20:32;;;;;;;6.68;3.47;;;;;;;;;;5034799;28;20029;-92
2021/10/18 15:22:58;;;;;;;7.07;2.80;;;;;;;;;;5033490;28;20017;-91
2021/10/18 15:25:23;;;;;;;5.70;3.28;;;;;;;;;;5036096;28;20017;-91
2021/10/18 15:27:48;;;;;;;7.57;2.95;;;;;;;;;;5036004;28;20009;-91